SAS725 EFHK-ESSA
Flight info
| Callsign | SAS725 |
|---|---|
| Flight time | 0h 43m |
| Altitude | 36000 |
| Route | ADIVO Y365 POGOK DCT RUNGA N872 XILAN |
| Aircraft | A320/M-SDE3FGHIRWY/LB1 |
Departure
| Time | 2026-05-07 18:25 |
|---|---|
| Airport | Helsinki Vantaa Airport (EFHK) |
Arrival
| Time | 2026-05-07 19:09 |
|---|---|
| Airport | Stockholm-Arlanda Airport (ESSA) |
| Time | Latitude | Longitude | Altitude | Speed | Heading |
|---|---|---|---|---|---|
| 2026-05-07 17:36 | 60.31557 | 24.97324 | 167 ft | 0 kts | 243° |
| 2026-05-07 18:13 | 60.31561 | 24.97340 | 167 ft | 4 kts | 239° |
| 2026-05-07 18:13 | 60.31577 | 24.97383 | 166 ft | 4 kts | 224° |
| 2026-05-07 18:13 | 60.31596 | 24.97419 | 165 ft | 4 kts | 239° |
| 2026-05-07 18:13 | 60.31609 | 24.97417 | 165 ft | 4 kts | 327° |
| 2026-05-07 18:14 | 60.31591 | 24.97436 | 164 ft | 4 kts | 333° |
| 2026-05-07 18:14 | 60.31572 | 24.97455 | 163 ft | 1 kts | 333° |
| 2026-05-07 18:17 | 60.31579 | 24.97448 | 164 ft | 3 kts | 333° |
| 2026-05-07 18:18 | 60.31614 | 24.97435 | 164 ft | 8 kts | 14° |
| 2026-05-07 18:18 | 60.31693 | 24.97505 | 158 ft | 17 kts | 335° |
| 2026-05-07 18:18 | 60.31799 | 24.97371 | 161 ft | 19 kts | 332° |
| 2026-05-07 18:18 | 60.31921 | 24.97246 | 163 ft | 21 kts | 331° |
| 2026-05-07 18:19 | 60.32059 | 24.97106 | 166 ft | 23 kts | 332° |
| 2026-05-07 18:19 | 60.32209 | 24.96947 | 165 ft | 26 kts | 334° |
| 2026-05-07 18:19 | 60.32314 | 24.96842 | 165 ft | 14 kts | 333° |
| 2026-05-07 18:19 | 60.32369 | 24.96784 | 168 ft | 6 kts | 333° |
| 2026-05-07 18:20 | 60.32401 | 24.96751 | 170 ft | 5 kts | 333° |
| 2026-05-07 18:20 | 60.32461 | 24.96689 | 175 ft | 16 kts | 332° |
| 2026-05-07 18:20 | 60.32582 | 24.96555 | 172 ft | 23 kts | 330° |
| 2026-05-07 18:20 | 60.32730 | 24.96383 | 171 ft | 26 kts | 330° |
| 2026-05-07 18:21 | 60.32868 | 24.96226 | 174 ft | 17 kts | 326° |
| 2026-05-07 18:21 | 60.32908 | 24.96058 | 175 ft | 15 kts | 247° |
| 2026-05-07 18:21 | 60.32961 | 24.95897 | 178 ft | 16 kts | 330° |
| 2026-05-07 18:21 | 60.33057 | 24.95788 | 181 ft | 17 kts | 328° |
| 2026-05-07 18:22 | 60.33155 | 24.95613 | 181 ft | 20 kts | 317° |
| 2026-05-07 18:22 | 60.33188 | 24.95551 | 182 ft | 18 kts | 316° |
| 2026-05-07 18:22 | 60.33116 | 24.95154 | 178 ft | 23 kts | 248° |
| 2026-05-07 18:22 | 60.33113 | 24.94812 | 180 ft | 25 kts | 272° |
| 2026-05-07 18:23 | 60.33119 | 24.94495 | 190 ft | 17 kts | 272° |
| 2026-05-07 18:23 | 60.33096 | 24.94350 | 194 ft | 0 kts | 227° |
| 2026-05-07 18:24 | 60.33025 | 24.94193 | 199 ft | 50 kts | 227° |
| 2026-05-07 18:24 | 60.32618 | 24.93297 | 180 ft | 119 kts | 227° |
| 2026-05-07 18:25 | 60.31949 | 24.91825 | 359 ft | 153 kts | 225° |
| 2026-05-07 18:25 | 60.31209 | 24.90226 | 998 ft | 157 kts | 227° |
| 2026-05-07 18:25 | 60.30510 | 24.88524 | 1705 ft | 163 kts | 242° |
| 2026-05-07 18:25 | 60.30170 | 24.86261 | 2060 ft | 183 kts | 269° |
| 2026-05-07 18:26 | 60.30441 | 24.83604 | 2451 ft | 207 kts | 295° |
| 2026-05-07 18:26 | 60.31063 | 24.80799 | 2972 ft | 231 kts | 295° |
| 2026-05-07 18:26 | 60.31691 | 24.77652 | 3673 ft | 249 kts | 285° |
| 2026-05-07 18:26 | 60.31770 | 24.74102 | 4672 ft | 257 kts | 270° |
| 2026-05-07 18:27 | 60.31683 | 24.70465 | 5708 ft | 261 kts | 269° |
| 2026-05-07 18:27 | 60.31592 | 24.66820 | 6705 ft | 265 kts | 269° |
| 2026-05-07 18:27 | 60.31496 | 24.63068 | 7697 ft | 268 kts | 269° |
| 2026-05-07 18:27 | 60.31401 | 24.59297 | 8716 ft | 270 kts | 268° |
| 2026-05-07 18:28 | 60.31306 | 24.55496 | 9736 ft | 272 kts | 268° |
| 2026-05-07 18:28 | 60.31210 | 24.51625 | 10496 ft | 283 kts | 268° |
| 2026-05-07 18:28 | 60.31107 | 24.47555 | 10911 ft | 301 kts | 268° |
| 2026-05-07 18:28 | 60.30995 | 24.43293 | 11689 ft | 305 kts | 268° |
| 2026-05-07 18:29 | 60.30883 | 24.39007 | 12607 ft | 306 kts | 268° |
| 2026-05-07 18:29 | 60.30768 | 24.34717 | 13559 ft | 306 kts | 266° |
| 2026-05-07 18:29 | 60.30435 | 24.30469 | 14411 ft | 307 kts | 260° |
| 2026-05-07 18:29 | 60.30007 | 24.26235 | 15221 ft | 308 kts | 259° |
| 2026-05-07 18:30 | 60.29563 | 24.22041 | 15955 ft | 310 kts | 259° |
| 2026-05-07 18:30 | 60.29105 | 24.17783 | 16705 ft | 312 kts | 259° |
| 2026-05-07 18:30 | 60.28643 | 24.13499 | 17486 ft | 313 kts | 259° |
| 2026-05-07 18:30 | 60.28178 | 24.09197 | 18318 ft | 314 kts | 259° |
| 2026-05-07 18:31 | 60.27712 | 24.04876 | 19024 ft | 315 kts | 259° |
| 2026-05-07 18:31 | 60.27246 | 24.00550 | 19721 ft | 317 kts | 259° |
| 2026-05-07 18:31 | 60.26781 | 23.96200 | 20426 ft | 319 kts | 259° |
| 2026-05-07 18:31 | 60.26321 | 23.91805 | 21119 ft | 321 kts | 259° |
| 2026-05-07 18:32 | 60.25871 | 23.87448 | 21791 ft | 322 kts | 259° |
| 2026-05-07 18:32 | 60.25410 | 23.83008 | 22447 ft | 325 kts | 259° |
| 2026-05-07 18:32 | 60.24944 | 23.78539 | 23111 ft | 327 kts | 259° |
| 2026-05-07 18:32 | 60.24473 | 23.74041 | 23752 ft | 329 kts | 259° |
| 2026-05-07 18:33 | 60.23996 | 23.69516 | 24263 ft | 332 kts | 259° |
| 2026-05-07 18:33 | 60.23511 | 23.64948 | 24793 ft | 334 kts | 259° |
| 2026-05-07 18:33 | 60.23022 | 23.60369 | 25286 ft | 337 kts | 259° |
| 2026-05-07 18:33 | 60.22528 | 23.55732 | 25783 ft | 340 kts | 259° |
| 2026-05-07 18:34 | 60.22029 | 23.51066 | 26259 ft | 343 kts | 259° |
| 2026-05-07 18:34 | 60.21527 | 23.46406 | 26718 ft | 346 kts | 259° |
| 2026-05-07 18:34 | 60.21013 | 23.41657 | 27189 ft | 348 kts | 258° |
| 2026-05-07 18:34 | 60.20492 | 23.36873 | 27644 ft | 351 kts | 258° |
| 2026-05-07 18:35 | 60.19966 | 23.32051 | 28085 ft | 354 kts | 258° |
| 2026-05-07 18:35 | 60.19434 | 23.27195 | 28569 ft | 356 kts | 259° |
| 2026-05-07 18:35 | 60.18897 | 23.22313 | 29015 ft | 359 kts | 259° |
| 2026-05-07 18:35 | 60.18355 | 23.17396 | 29354 ft | 362 kts | 259° |
| 2026-05-07 18:36 | 60.17810 | 23.12476 | 29712 ft | 367 kts | 259° |
| 2026-05-07 18:36 | 60.17252 | 23.07455 | 30116 ft | 370 kts | 259° |
| 2026-05-07 18:36 | 60.16688 | 23.02393 | 30475 ft | 373 kts | 259° |
| 2026-05-07 18:36 | 60.16117 | 22.97274 | 30825 ft | 376 kts | 258° |
| 2026-05-07 18:37 | 60.15538 | 22.92116 | 31162 ft | 379 kts | 258° |
| 2026-05-07 18:37 | 60.14955 | 22.86920 | 31494 ft | 383 kts | 258° |
| 2026-05-07 18:37 | 60.14361 | 22.81681 | 31821 ft | 386 kts | 258° |
| 2026-05-07 18:37 | 60.13770 | 22.76469 | 32195 ft | 388 kts | 258° |
| 2026-05-07 18:38 | 60.13168 | 22.71196 | 32660 ft | 388 kts | 258° |
| 2026-05-07 18:38 | 60.12561 | 22.65920 | 33107 ft | 388 kts | 258° |
| 2026-05-07 18:38 | 60.11952 | 22.60638 | 33552 ft | 389 kts | 258° |
| 2026-05-07 18:38 | 60.11343 | 22.55341 | 34014 ft | 389 kts | 258° |
| 2026-05-07 18:39 | 60.10734 | 22.50041 | 34414 ft | 390 kts | 258° |
| 2026-05-07 18:39 | 60.10119 | 22.44737 | 34779 ft | 390 kts | 258° |
| 2026-05-07 18:39 | 60.09499 | 22.39431 | 35124 ft | 391 kts | 258° |
| 2026-05-07 18:39 | 60.08886 | 22.34185 | 35457 ft | 392 kts | 258° |
| 2026-05-07 18:40 | 60.08260 | 22.28862 | 35791 ft | 393 kts | 258° |
| 2026-05-07 18:40 | 60.07628 | 22.23524 | 36076 ft | 394 kts | 257° |
| 2026-05-07 18:40 | 60.06994 | 22.18183 | 36146 ft | 392 kts | 257° |
| 2026-05-07 18:41 | 60.05740 | 22.07614 | 36147 ft | 388 kts | 257° |
| 2026-05-07 18:41 | 60.04489 | 21.97164 | 36162 ft | 388 kts | 257° |
| 2026-05-07 18:42 | 60.03223 | 21.86657 | 36154 ft | 388 kts | 257° |
| 2026-05-07 18:42 | 60.01952 | 21.76235 | 36160 ft | 388 kts | 257° |
| 2026-05-07 18:43 | 60.00666 | 21.65755 | 36187 ft | 388 kts | 257° |
| 2026-05-07 18:43 | 59.99371 | 21.55281 | 36183 ft | 388 kts | 257° |
| 2026-05-07 18:44 | 59.98066 | 21.44822 | 36176 ft | 388 kts | 257° |
| 2026-05-07 18:44 | 59.96755 | 21.34353 | 36177 ft | 388 kts | 257° |
| 2026-05-07 18:44 | 59.96094 | 21.29050 | 35972 ft | 397 kts | 257° |
| 2026-05-07 18:45 | 59.95420 | 21.23679 | 35725 ft | 400 kts | 257° |
| 2026-05-07 18:45 | 59.94736 | 21.18290 | 35480 ft | 400 kts | 257° |
| 2026-05-07 18:45 | 59.94047 | 21.12903 | 35242 ft | 400 kts | 257° |
| 2026-05-07 18:45 | 59.93366 | 21.07592 | 35007 ft | 400 kts | 257° |
| 2026-05-07 18:46 | 59.92675 | 21.02208 | 34770 ft | 399 kts | 258° |
| 2026-05-07 18:46 | 59.91985 | 20.96848 | 34536 ft | 398 kts | 258° |
| 2026-05-07 18:46 | 59.91296 | 20.91505 | 34306 ft | 398 kts | 258° |
| 2026-05-07 18:46 | 59.90605 | 20.86170 | 34077 ft | 396 kts | 258° |
| 2026-05-07 18:47 | 59.89920 | 20.80917 | 33794 ft | 395 kts | 258° |
| 2026-05-07 18:47 | 59.89229 | 20.75624 | 33527 ft | 394 kts | 258° |
| 2026-05-07 18:47 | 59.88537 | 20.70334 | 32834 ft | 395 kts | 258° |
| 2026-05-07 18:47 | 59.87841 | 20.65029 | 31965 ft | 396 kts | 258° |
| 2026-05-07 18:48 | 59.87142 | 20.59742 | 31334 ft | 392 kts | 258° |
| 2026-05-07 18:48 | 59.86450 | 20.54540 | 30837 ft | 385 kts | 258° |
| 2026-05-07 18:48 | 59.85775 | 20.49482 | 30327 ft | 379 kts | 258° |
| 2026-05-07 18:48 | 59.85102 | 20.44443 | 29743 ft | 374 kts | 258° |
| 2026-05-07 18:49 | 59.84442 | 20.39497 | 29234 ft | 367 kts | 258° |
| 2026-05-07 18:49 | 59.83790 | 20.34629 | 28726 ft | 361 kts | 258° |
| 2026-05-07 18:49 | 59.83150 | 20.29841 | 28222 ft | 355 kts | 258° |
| 2026-05-07 18:49 | 59.82516 | 20.25115 | 27716 ft | 350 kts | 258° |
| 2026-05-07 18:50 | 59.81889 | 20.20460 | 27240 ft | 346 kts | 258° |
| 2026-05-07 18:50 | 59.81265 | 20.15861 | 26757 ft | 343 kts | 258° |
| 2026-05-07 18:50 | 59.80653 | 20.11367 | 26288 ft | 340 kts | 258° |
| 2026-05-07 18:50 | 59.80035 | 20.06841 | 25785 ft | 338 kts | 258° |
| 2026-05-07 18:51 | 59.79420 | 20.02349 | 25348 ft | 336 kts | 258° |
| 2026-05-07 18:51 | 59.79006 | 19.99326 | 25045 ft | 335 kts | 258° |
| 2026-05-07 18:51 | 59.78210 | 19.93534 | 24463 ft | 334 kts | 258° |
| 2026-05-07 18:51 | 59.77604 | 19.89141 | 24030 ft | 333 kts | 258° |
| 2026-05-07 18:52 | 59.76988 | 19.84712 | 23574 ft | 331 kts | 258° |
| 2026-05-07 18:52 | 59.76372 | 19.80317 | 23113 ft | 328 kts | 257° |
| 2026-05-07 18:52 | 59.75763 | 19.75985 | 22684 ft | 324 kts | 257° |
| 2026-05-07 18:52 | 59.75164 | 19.71706 | 22251 ft | 320 kts | 257° |
| 2026-05-07 18:53 | 59.74569 | 19.67468 | 21829 ft | 318 kts | 257° |
| 2026-05-07 18:53 | 59.74160 | 19.63211 | 21017 ft | 321 kts | 271° |
| 2026-05-07 18:53 | 59.74376 | 19.58761 | 20211 ft | 328 kts | 278° |
| 2026-05-07 18:53 | 59.74697 | 19.54281 | 19597 ft | 328 kts | 278° |
| 2026-05-07 18:54 | 59.75024 | 19.49785 | 19044 ft | 327 kts | 278° |
| 2026-05-07 18:54 | 59.75347 | 19.45348 | 18537 ft | 323 kts | 278° |
| 2026-05-07 18:54 | 59.75672 | 19.40852 | 17346 ft | 337 kts | 278° |
| 2026-05-07 18:54 | 59.75999 | 19.36244 | 16678 ft | 337 kts | 278° |
| 2026-05-07 18:55 | 59.76316 | 19.31685 | 16134 ft | 332 kts | 278° |
| 2026-05-07 18:55 | 59.76625 | 19.27140 | 15523 ft | 330 kts | 278° |
| 2026-05-07 18:55 | 59.76927 | 19.22625 | 14911 ft | 329 kts | 278° |
| 2026-05-07 18:55 | 59.77222 | 19.18124 | 14302 ft | 328 kts | 278° |
| 2026-05-07 18:56 | 59.77506 | 19.13693 | 13678 ft | 327 kts | 278° |
| 2026-05-07 18:56 | 59.77788 | 19.09232 | 13038 ft | 325 kts | 278° |
| 2026-05-07 18:56 | 59.78066 | 19.04789 | 12428 ft | 323 kts | 278° |
| 2026-05-07 18:56 | 59.78339 | 19.00394 | 12035 ft | 315 kts | 278° |
| 2026-05-07 18:57 | 59.78601 | 18.96130 | 11768 ft | 305 kts | 278° |
| 2026-05-07 18:57 | 59.78851 | 18.92014 | 11510 ft | 296 kts | 278° |
| 2026-05-07 18:57 | 59.79093 | 18.88001 | 11253 ft | 287 kts | 278° |
| 2026-05-07 18:57 | 59.79320 | 18.84162 | 11052 ft | 273 kts | 278° |
| 2026-05-07 18:58 | 59.79533 | 18.80512 | 10648 ft | 268 kts | 278° |
| 2026-05-07 18:58 | 59.79744 | 18.76857 | 10187 ft | 266 kts | 278° |
| 2026-05-07 18:58 | 59.79954 | 18.73203 | 9675 ft | 264 kts | 278° |
| 2026-05-07 18:58 | 59.80161 | 18.69580 | 9152 ft | 263 kts | 278° |
| 2026-05-07 18:59 | 59.80381 | 18.65971 | 8635 ft | 262 kts | 278° |
| 2026-05-07 18:59 | 59.80607 | 18.62358 | 8197 ft | 263 kts | 278° |
| 2026-05-07 18:59 | 59.80830 | 18.58758 | 7831 ft | 262 kts | 278° |
| 2026-05-07 18:59 | 59.81047 | 18.55229 | 7609 ft | 256 kts | 278° |
| 2026-05-07 19:00 | 59.81256 | 18.51799 | 7436 ft | 245 kts | 278° |
| 2026-05-07 19:00 | 59.81454 | 18.48474 | 7116 ft | 240 kts | 278° |
| 2026-05-07 19:00 | 59.81648 | 18.45184 | 6720 ft | 239 kts | 278° |
| 2026-05-07 19:00 | 59.81833 | 18.41985 | 6580 ft | 226 kts | 278° |
| 2026-05-07 19:01 | 59.82008 | 18.38939 | 6301 ft | 219 kts | 278° |
| 2026-05-07 19:01 | 59.82179 | 18.35941 | 5906 ft | 218 kts | 278° |
| 2026-05-07 19:01 | 59.82351 | 18.32946 | 5492 ft | 218 kts | 278° |
| 2026-05-07 19:01 | 59.82522 | 18.29992 | 5078 ft | 217 kts | 278° |
| 2026-05-07 19:02 | 59.82694 | 18.27011 | 4678 ft | 217 kts | 278° |
| 2026-05-07 19:02 | 59.82870 | 18.24062 | 4381 ft | 211 kts | 278° |
| 2026-05-07 19:02 | 59.83038 | 18.21205 | 4123 ft | 204 kts | 278° |
| 2026-05-07 19:02 | 59.83197 | 18.18479 | 4020 ft | 193 kts | 277° |
| 2026-05-07 19:03 | 59.83332 | 18.15867 | 4019 ft | 188 kts | 275° |
| 2026-05-07 19:03 | 59.83397 | 18.13286 | 3808 ft | 187 kts | 273° |
| 2026-05-07 19:03 | 59.83451 | 18.10701 | 3539 ft | 187 kts | 273° |
| 2026-05-07 19:03 | 59.83390 | 18.08129 | 3265 ft | 187 kts | 250° |
| 2026-05-07 19:04 | 59.82696 | 18.05977 | 2972 ft | 186 kts | 227° |
| 2026-05-07 19:04 | 59.81807 | 18.04146 | 2821 ft | 187 kts | 223° |
| 2026-05-07 19:04 | 59.80862 | 18.02360 | 2681 ft | 187 kts | 215° |
| 2026-05-07 19:04 | 59.79705 | 18.01295 | 2595 ft | 182 kts | 190° |
| 2026-05-07 19:05 | 59.78487 | 18.00849 | 2545 ft | 173 kts | 189° |
| 2026-05-07 19:05 | 59.77331 | 18.00425 | 2505 ft | 166 kts | 189° |
| 2026-05-07 19:05 | 59.76218 | 18.00018 | 2382 ft | 163 kts | 188° |
| 2026-05-07 19:05 | 59.75108 | 17.99613 | 2199 ft | 161 kts | 188° |
| 2026-05-07 19:06 | 59.74008 | 17.99211 | 1990 ft | 160 kts | 189° |
| 2026-05-07 19:06 | 59.71841 | 17.98420 | 1573 ft | 149 kts | 189° |
| 2026-05-07 19:06 | 59.70874 | 17.98066 | 1365 ft | 136 kts | 188° |
| 2026-05-07 19:07 | 59.69962 | 17.97735 | 1179 ft | 131 kts | 188° |
| 2026-05-07 19:07 | 59.69070 | 17.97411 | 997 ft | 130 kts | 188° |
| 2026-05-07 19:07 | 59.68181 | 17.97091 | 813 ft | 129 kts | 188° |
| 2026-05-07 19:07 | 59.67296 | 17.96773 | 641 ft | 129 kts | 187° |
| 2026-05-07 19:08 | 59.66422 | 17.96464 | 476 ft | 129 kts | 188° |
| 2026-05-07 19:08 | 59.65536 | 17.96143 | 290 ft | 129 kts | 189° |
| 2026-05-07 19:08 | 59.64652 | 17.95803 | 122 ft | 128 kts | 188° |
| 2026-05-07 19:08 | 59.63881 | 17.95530 | 115 ft | 90 kts | 191° |
| 2026-05-07 19:09 | 59.63519 | 17.95386 | 121 ft | 27 kts | 198° |
| 2026-05-07 19:09 | 59.63368 | 17.95242 | 119 ft | 25 kts | 214° |
| 2026-05-07 19:09 | 59.63251 | 17.95042 | 124 ft | 15 kts | 236° |
| 2026-05-07 19:09 | 59.63301 | 17.94910 | 123 ft | 17 kts | 3° |
| 2026-05-07 19:10 | 59.63439 | 17.94960 | 120 ft | 23 kts | 11° |
| 2026-05-07 19:10 | 59.63619 | 17.95022 | 114 ft | 29 kts | 10° |
| 2026-05-07 19:10 | 59.63837 | 17.95106 | 110 ft | 34 kts | 11° |
| 2026-05-07 19:10 | 59.64025 | 17.95172 | 108 ft | 20 kts | 11° |
| 2026-05-07 19:11 | 59.64175 | 17.95226 | 107 ft | 24 kts | 10° |
| 2026-05-07 19:11 | 59.64357 | 17.95294 | 106 ft | 29 kts | 10° |
| 2026-05-07 19:11 | 59.64566 | 17.95368 | 105 ft | 32 kts | 11° |
| 2026-05-07 19:11 | 59.64795 | 17.95453 | 107 ft | 35 kts | 10° |
| 2026-05-07 19:12 | 59.65035 | 17.95515 | 113 ft | 34 kts | 350° |
| 2026-05-07 19:12 | 59.65247 | 17.95407 | 121 ft | 30 kts | 346° |
| 2026-05-07 19:12 | 59.65448 | 17.95303 | 125 ft | 31 kts | 345° |
| 2026-05-07 19:12 | 59.65656 | 17.95194 | 129 ft | 23 kts | 346° |
| 2026-05-07 19:13 | 59.65739 | 17.95110 | 127 ft | 14 kts | 307° |
| 2026-05-07 19:13 | 59.65735 | 17.94900 | 125 ft | 17 kts | 256° |
| 2026-05-07 19:13 | 59.65704 | 17.94653 | 124 ft | 19 kts | 256° |
| 2026-05-07 19:13 | 59.65670 | 17.94387 | 125 ft | 21 kts | 255° |
| 2026-05-07 19:14 | 59.65632 | 17.94094 | 122 ft | 24 kts | 256° |
| 2026-05-07 19:14 | 59.65588 | 17.93875 | 114 ft | 15 kts | 206° |
| 2026-05-07 19:14 | 59.65517 | 17.93893 | 113 ft | 17 kts | 166° |
| 2026-05-07 19:14 | 59.65397 | 17.93952 | 113 ft | 19 kts | 166° |
| 2026-05-07 19:15 | 59.65318 | 17.93894 | 112 ft | 11 kts | 251° |
| 2026-05-07 19:15 | 59.65310 | 17.93841 | 112 ft | 0 kts | 254° |